createdAt,value
2022-10-03T00:00:13.493Z,101988.22
2022-10-03T00:02:50.881Z,101995.25
2022-10-03T00:05:33.191Z,101998.81
2022-10-03T00:08:22.891Z,101987.56
2022-10-03T00:11:17.601Z,101990.69
2022-10-03T00:14:18.540Z,101983.84
2022-10-03T00:17:10.918Z,101981.56
2022-10-03T00:19:44.936Z,101973.06
2022-10-03T00:23:08.181Z,101971.59
2022-10-03T00:25:55.080Z,101968.91
2022-10-03T00:28:50.698Z,101971.38
2022-10-03T00:31:25.685Z,101958.09
2022-10-03T00:34:22.335Z,101967.00
2022-10-03T00:37:17.209Z,101963.31
2022-10-03T00:40:02.554Z,101957.28
2022-10-03T00:42:55.353Z,101960.22
2022-10-03T00:46:01.845Z,101969.56
2022-10-03T00:48:59.986Z,101961.91
2022-10-03T00:52:13.026Z,101961.09
2022-10-03T00:55:17.796Z,101956.50
2022-10-03T00:57:51.528Z,101961.72
2022-10-03T01:00:25.461Z,101956.53
2022-10-03T01:02:53.087Z,101963.78
2022-10-03T01:05:38.602Z,101965.69
2022-10-03T01:08:43.948Z,101961.53
2022-10-03T01:11:39.939Z,101962.16
2022-10-03T01:14:39.144Z,101960.91
2022-10-03T01:17:13.963Z,101967.97
2022-10-03T01:20:20.537Z,101963.59
2022-10-03T01:23:00.586Z,101963.00
2022-10-03T01:25:38.756Z,101954.09
2022-10-03T01:29:00.372Z,101967.97
2022-10-03T01:31:49.352Z,101969.03
2022-10-03T01:34:30.462Z,101964.25
2022-10-03T01:37:16.004Z,101961.97
2022-10-03T01:40:12.995Z,101957.59
2022-10-03T01:43:04.619Z,101959.91
2022-10-03T01:45:56.456Z,101958.88
2022-10-03T01:48:45.972Z,101959.47
2022-10-03T01:52:01.440Z,101964.44
2022-10-03T01:55:01.695Z,101965.50
2022-10-03T01:57:35.950Z,101964.03
2022-10-03T02:00:08.642Z,101959.25
2022-10-03T02:03:12.496Z,101956.97
2022-10-03T02:06:07.131Z,101961.13
2022-10-03T02:08:49.130Z,101957.19
2022-10-03T02:11:34.343Z,101958.81
2022-10-03T02:14:15.151Z,101958.22
2022-10-03T02:17:02.255Z,101955.50
2022-10-03T02:20:12.203Z,101951.34
2022-10-03T02:22:52.116Z,101952.81
2022-10-03T02:25:24.416Z,101943.69
2022-10-03T02:28:11.052Z,101937.88
2022-10-03T02:31:12.931Z,101932.69
2022-10-03T02:34:17.954Z,101938.69
2022-10-03T02:37:19.890Z,101934.34
2022-10-03T02:40:22.206Z,101930.41
2022-10-03T02:43:24.568Z,101929.97
2022-10-03T02:46:31.488Z,101928.09
2022-10-03T02:49:24.238Z,101915.22
2022-10-03T02:52:15.409Z,101909.19
2022-10-03T02:55:14.396Z,101912.94
2022-10-03T02:58:12.858Z,101915.19
2022-10-03T03:01:14.614Z,101918.50
2022-10-03T03:04:15.539Z,101922.84
2022-10-03T03:07:02.348Z,101922.44
2022-10-03T03:09:48.671Z,101917.06
2022-10-03T03:12:41.219Z,101920.81
2022-10-03T03:15:28.519Z,101914.81
2022-10-03T03:18:23.157Z,101915.44
2022-10-03T03:21:04.582Z,101917.72
2022-10-03T03:23:46.151Z,101916.03
2022-10-03T03:26:42.792Z,101914.19
2022-10-03T03:29:41.847Z,101915.63
2022-10-03T03:32:45.664Z,101916.88
2022-10-03T03:35:35.058Z,101906.47
2022-10-03T03:38:31.983Z,101906.66
2022-10-03T03:41:14.867Z,101899.38
2022-10-03T03:44:07.652Z,101893.59
2022-10-03T03:47:00.266Z,101889.44
2022-10-03T03:49:29.981Z,101901.44
2022-10-03T03:52:29.175Z,101894.22
2022-10-03T03:55:26.869Z,101896.94
2022-10-03T03:58:19.620Z,101889.09
2022-10-03T04:01:26.822Z,101887.63
2022-10-03T04:04:22.734Z,101882.03
2022-10-03T04:07:21.820Z,101877.03
2022-10-03T04:10:06.287Z,101871.84
2022-10-03T04:12:59.013Z,101872.66
2022-10-03T04:15:36.610Z,101861.81
2022-10-03T04:18:46.369Z,101863.22
2022-10-03T04:22:16.149Z,101856.38
2022-10-03T04:24:59.012Z,101848.44
2022-10-03T04:27:53.248Z,101847.44
2022-10-03T04:30:38.886Z,101846.59
2022-10-03T04:33:25.828Z,101843.91
2022-10-03T04:36:12.254Z,101844.97
2022-10-03T04:39:02.477Z,101843.72
2022-10-03T04:42:00.468Z,101842.28
2022-10-03T04:44:58.927Z,101851.41
2022-10-03T04:47:45.667Z,101845.59
2022-10-03T04:50:20.945Z,101848.03
2022-10-03T04:52:57.793Z,101848.38
2022-10-03T04:55:55.199Z,101849.56
2022-10-03T04:58:40.475Z,101841.03
2022-10-03T05:01:19.662Z,101840.41
2022-10-03T05:03:59.416Z,101854.03
2022-10-03T05:07:04.415Z,101838.34
2022-10-03T05:09:44.152Z,101846.16
2022-10-03T05:12:30.593Z,101846.47
2022-10-03T05:15:07.936Z,101839.19
2022-10-03T05:18:00.717Z,101853.50
2022-10-03T05:20:39.019Z,101857.19
2022-10-03T05:23:31.660Z,101847.78
2022-10-03T05:26:16.393Z,101853.16
2022-10-03T05:28:55.268Z,101848.31
2022-10-03T05:31:50.678Z,101851.88
2022-10-03T05:34:59.491Z,101858.06
2022-10-03T05:37:56.641Z,101857.88
2022-10-03T05:40:30.876Z,101854.38
2022-10-03T05:43:24.155Z,101850.69
2022-10-03T05:46:23.349Z,101855.66
2022-10-03T05:49:25.494Z,101855.00
2022-10-03T05:52:39.317Z,101854.75
2022-10-03T05:55:19.442Z,101860.81
2022-10-03T05:58:06.395Z,101858.38
2022-10-03T06:00:50.539Z,101851.13
2022-10-03T06:04:02.651Z,101854.69
2022-10-03T06:06:57.759Z,101863.81
2022-10-03T06:09:28.602Z,101861.53
2022-10-03T06:12:15.899Z,101862.81
2022-10-03T06:15:08.328Z,101862.84
2022-10-03T06:18:27.165Z,101866.84
2022-10-03T06:21:19.448Z,101877.22
2022-10-03T06:24:17.878Z,101875.44
2022-10-03T06:27:24.203Z,101880.78
2022-10-03T06:30:13.598Z,101881.00
2022-10-03T06:33:10.257Z,101880.41
2022-10-03T06:36:08.547Z,101875.50
2022-10-03T06:39:20.409Z,101879.25
2022-10-03T06:42:09.608Z,101872.06
2022-10-03T06:45:32.391Z,101888.47
2022-10-03T06:48:22.737Z,101882.06
2022-10-03T06:51:30.667Z,101881.25
2022-10-03T06:54:43.987Z,101882.91
2022-10-03T06:57:33.700Z,101885.81
2022-10-03T07:00:11.492Z,101887.06
2022-10-03T07:03:19.662Z,101889.75
2022-10-03T07:06:18.451Z,101892.84
2022-10-03T07:08:52.372Z,101902.19
2022-10-03T07:11:40.811Z,101897.44
2022-10-03T07:14:26.001Z,101906.34
2022-10-03T07:17:15.727Z,101901.81
2022-10-03T07:20:08.873Z,101892.25
2022-10-03T07:23:02.289Z,101902.16
2022-10-03T07:25:36.430Z,101902.94
2022-10-03T07:28:10.583Z,101903.13
2022-10-03T07:31:03.383Z,101907.69
2022-10-03T07:33:58.995Z,101912.66
2022-10-03T07:37:23.367Z,101918.47
2022-10-03T07:40:10.803Z,101915.56
2022-10-03T07:42:53.632Z,101920.06
2022-10-03T07:45:42.631Z,101922.19
2022-10-03T07:48:25.832Z,101926.53
2022-10-03T07:51:17.969Z,101931.53
2022-10-03T07:54:17.838Z,101929.69
2022-10-03T07:56:51.182Z,101942.34
2022-10-03T07:59:53.151Z,101943.78
2022-10-03T08:02:51.309Z,101935.06
2022-10-03T08:05:44.455Z,101937.72
2022-10-03T08:08:50.953Z,101936.41
2022-10-03T08:11:25.624Z,101937.81
2022-10-03T08:14:24.794Z,101940.88
2022-10-03T08:17:27.768Z,101938.31
2022-10-03T08:20:20.267Z,101930.34
2022-10-03T08:23:24.712Z,101932.50
2022-10-03T08:26:14.765Z,101934.94
2022-10-03T08:29:01.411Z,101934.22
2022-10-03T08:31:43.581Z,101929.41
2022-10-03T08:34:30.415Z,101927.84
2022-10-03T08:38:02.264Z,101921.78
2022-10-03T08:40:57.221Z,101926.06
2022-10-03T08:43:33.626Z,101925.97
2022-10-03T08:46:28.786Z,101922.91
2022-10-03T08:49:23.786Z,101930.50
2022-10-03T08:52:18.598Z,101930.09
2022-10-03T08:55:04.239Z,101932.72
2022-10-03T08:58:07.407Z,101935.28
2022-10-03T09:01:06.002Z,101928.59
2022-10-03T09:03:58.514Z,101934.75
2022-10-03T09:06:35.422Z,101924.91
2022-10-03T09:09:40.807Z,101925.28
2022-10-03T09:12:29.585Z,101927.91
2022-10-03T09:15:38.317Z,101923.75
2022-10-03T09:18:33.413Z,101916.59
2022-10-03T09:21:18.661Z,101914.84
2022-10-03T09:24:10.675Z,101907.69
2022-10-03T09:27:10.700Z,101913.44
2022-10-03T09:29:48.826Z,101908.13
2022-10-03T09:32:31.898Z,101901.81
2022-10-03T09:35:30.894Z,101902.66
2022-10-03T09:38:31.639Z,101908.06
2022-10-03T09:41:44.414Z,101900.69
2022-10-03T09:44:31.078Z,101894.44
2022-10-03T09:47:36.076Z,101901.16
2022-10-03T09:50:41.094Z,101899.28
2022-10-03T09:53:44.758Z,101907.88
2022-10-03T09:56:34.327Z,101896.44
2022-10-03T09:59:23.858Z,101898.09
2022-10-03T10:02:36.531Z,101898.91
2022-10-03T10:05:17.179Z,101908.72
2022-10-03T10:08:20.706Z,101904.91
2022-10-03T10:10:48.293Z,101898.22
2022-10-03T10:14:07.364Z,101901.97
2022-10-03T10:16:50.861Z,101899.50
2022-10-03T10:19:45.742Z,101895.94
2022-10-03T10:22:29.969Z,101892.22
2022-10-03T10:25:26.423Z,101893.84
2022-10-03T10:28:11.926Z,101893.13
2022-10-03T10:31:04.120Z,101892.66
2022-10-03T10:33:49.837Z,101887.81
2022-10-03T10:36:39.291Z,101884.72
2022-10-03T10:39:22.771Z,101881.56
2022-10-03T10:42:11.771Z,101881.50
2022-10-03T10:45:08.291Z,101879.88
2022-10-03T10:48:01.932Z,101874.53
2022-10-03T10:51:07.435Z,101872.78
2022-10-03T10:54:18.386Z,101875.09
2022-10-03T10:57:23.309Z,101873.13
2022-10-03T11:00:29.537Z,101870.78
2022-10-03T11:03:15.501Z,101863.09
2022-10-03T11:06:22.688Z,101864.78
2022-10-03T11:09:17.765Z,101869.34
2022-10-03T11:12:07.307Z,101861.91
2022-10-03T11:15:02.096Z,101867.59
2022-10-03T11:17:40.837Z,101858.41
2022-10-03T11:20:46.028Z,101858.66
2022-10-03T11:23:59.200Z,101864.22
2022-10-03T11:27:18.271Z,101861.00
2022-10-03T11:30:12.881Z,101853.53
2022-10-03T11:32:58.134Z,101854.75
2022-10-03T11:35:36.731Z,101842.34
2022-10-03T11:38:17.321Z,101846.00
2022-10-03T11:41:17.037Z,101843.41
2022-10-03T11:44:04.765Z,101844.94
2022-10-03T11:46:53.329Z,101839.97
2022-10-03T11:49:47.815Z,101834.47
2022-10-03T11:52:31.005Z,101821.25
2022-10-03T11:55:21.047Z,101824.88
2022-10-03T11:58:06.292Z,101828.78
2022-10-03T12:00:37.886Z,101819.88
2022-10-03T12:03:31.381Z,101819.50
2022-10-03T12:06:20.434Z,101818.19
2022-10-03T12:09:17.870Z,101815.44
2022-10-03T12:11:58.758Z,101812.06
2022-10-03T12:14:32.742Z,101804.28
2022-10-03T12:17:16.264Z,101803.28
2022-10-03T12:19:57.864Z,101794.47
2022-10-03T12:22:44.075Z,101786.16
2022-10-03T12:25:25.862Z,101781.53
2022-10-03T12:28:22.661Z,101787.16
2022-10-03T12:31:01.098Z,101780.31
2022-10-03T12:33:38.928Z,101786.31
2022-10-03T12:36:53.791Z,101787.03
2022-10-03T12:39:36.434Z,101778.75
2022-10-03T12:42:27.132Z,101779.06
2022-10-03T12:45:03.340Z,101771.16
2022-10-03T12:48:07.893Z,101770.25
2022-10-03T12:50:47.823Z,101765.38
2022-10-03T12:53:18.518Z,101759.13
2022-10-03T12:56:02.411Z,101755.34
2022-10-03T12:58:36.732Z,101760.28
2022-10-03T13:01:06.979Z,101759.00
2022-10-03T13:04:12.434Z,101756.63
2022-10-03T13:07:04.316Z,101756.91
2022-10-03T13:09:43.443Z,101760.28
2022-10-03T13:12:37.204Z,101747.59
2022-10-03T13:15:27.140Z,101745.13
2022-10-03T13:18:27.983Z,101746.19
2022-10-03T13:21:40.612Z,101746.19
2022-10-03T13:24:14.603Z,101741.84
2022-10-03T13:27:03.134Z,101738.78
2022-10-03T13:29:50.588Z,101733.19
2022-10-03T13:32:33.894Z,101726.16
2022-10-03T13:35:36.257Z,101722.72
2022-10-03T13:38:13.395Z,101721.56
2022-10-03T13:40:49.547Z,101726.91
2022-10-03T13:43:25.633Z,101721.22
2022-10-03T13:45:57.488Z,101707.13
2022-10-03T13:48:30.815Z,101705.91
2022-10-03T13:51:09.761Z,101704.25
2022-10-03T13:54:16.439Z,101704.41
2022-10-03T13:57:24.994Z,101706.88
2022-10-03T14:00:25.685Z,101700.97
2022-10-03T14:03:22.168Z,101701.78
2022-10-03T14:06:20.792Z,101704.41
2022-10-03T14:09:36.217Z,101704.06
2022-10-03T14:12:44.109Z,101699.75
2022-10-03T14:15:33.309Z,101705.56
2022-10-03T14:18:15.746Z,101698.47
2022-10-03T14:21:24.796Z,101697.19
2022-10-03T14:24:05.819Z,101684.09
2022-10-03T14:27:02.773Z,101681.53
2022-10-03T14:30:10.662Z,101683.28
2022-10-03T14:33:18.399Z,101681.63
2022-10-03T14:36:07.755Z,101684.91
2022-10-03T14:39:14.821Z,101685.50
2022-10-03T14:42:06.828Z,101683.75
2022-10-03T14:44:44.310Z,101677.59
2022-10-03T14:47:16.027Z,101676.91
2022-10-03T14:50:07.065Z,101671.31
2022-10-03T14:53:04.236Z,101673.22
2022-10-03T14:56:01.277Z,101672.72
2022-10-03T14:59:04.530Z,101671.25
2022-10-03T15:01:36.445Z,101677.84
2022-10-03T15:04:26.959Z,101678.75
2022-10-03T15:06:58.495Z,101678.31
2022-10-03T15:09:55.598Z,101673.19
2022-10-03T15:12:34.198Z,101682.03
2022-10-03T15:15:19.723Z,101684.00
2022-10-03T15:17:53.187Z,101681.63
2022-10-03T15:20:32.984Z,101680.53
2022-10-03T15:23:12.041Z,101684.91
2022-10-03T15:25:42.446Z,101682.78
2022-10-03T15:28:24.410Z,101685.81
2022-10-03T15:30:56.816Z,101688.72
2022-10-03T15:33:57.135Z,101680.06
2022-10-03T15:36:33.653Z,101688.28
2022-10-03T15:39:08.674Z,101684.00
2022-10-03T15:41:55.551Z,101689.13
2022-10-03T15:44:39.663Z,101694.06
2022-10-03T15:47:18.660Z,101691.09
2022-10-03T15:49:50.917Z,101688.13
2022-10-03T15:52:31.931Z,101691.44
2022-10-03T15:55:11.903Z,101692.75
2022-10-03T15:57:48.104Z,101700.88
2022-10-03T16:00:27.432Z,101686.72
2022-10-03T16:03:21.265Z,101680.72
2022-10-03T16:05:57.358Z,101682.44
2022-10-03T16:08:31.272Z,101688.72
2022-10-03T16:11:54.033Z,101684.44
2022-10-03T16:14:34.993Z,101684.84
2022-10-03T16:17:38.873Z,101672.97
2022-10-03T16:20:34.145Z,101680.69
2022-10-03T16:23:23.555Z,101680.69
2022-10-03T16:26:05.652Z,101674.88
2022-10-03T16:28:45.660Z,101675.44
2022-10-03T16:31:49.857Z,101671.09
2022-10-03T16:34:22.961Z,101680.81
2022-10-03T16:36:51.738Z,101676.03
2022-10-03T16:39:44.878Z,101672.97
2022-10-03T16:42:26.750Z,101669.44
2022-10-03T16:45:10.064Z,101668.75
2022-10-03T16:47:40.712Z,101665.34
2022-10-03T16:50:30.059Z,101661.81
2022-10-03T16:53:03.772Z,101658.59
2022-10-03T16:56:00.183Z,101657.75
2022-10-03T16:58:39.752Z,101659.81
2022-10-03T17:01:27.265Z,101656.50
2022-10-03T17:04:20.528Z,101655.34
2022-10-03T17:06:49.350Z,101655.75
2022-10-03T17:09:40.055Z,101648.25
2022-10-03T17:12:28.907Z,101653.81
2022-10-03T17:15:02.071Z,101656.06
2022-10-03T17:17:32.089Z,101657.41
2022-10-03T17:20:15.088Z,101656.66
2022-10-03T17:23:04.579Z,101653.63
2022-10-03T17:25:32.633Z,101657.75
2022-10-03T17:28:05.485Z,101657.41
2022-10-03T17:30:53.235Z,101656.03
2022-10-03T17:33:52.732Z,101657.81
2022-10-03T17:37:01.762Z,101657.56
2022-10-03T17:39:47.364Z,101658.63
2022-10-03T17:42:29.783Z,101661.56
2022-10-03T17:45:18.541Z,101662.25
2022-10-03T17:48:34.169Z,101672.31
2022-10-03T17:51:23.954Z,101673.34
2022-10-03T17:53:57.784Z,101670.06
2022-10-03T17:56:27.842Z,101671.13
2022-10-03T17:59:14.140Z,101667.00
2022-10-03T18:01:50.265Z,101670.44
2022-10-03T18:04:38.124Z,101673.03
2022-10-03T18:07:29.073Z,101674.44
2022-10-03T18:09:57.103Z,101672.91
2022-10-03T18:12:54.583Z,101675.16
2022-10-03T18:15:47.506Z,101675.41
2022-10-03T18:18:55.866Z,101674.34
2022-10-03T18:21:50.491Z,101657.59
2022-10-03T18:24:41.384Z,101666.78
2022-10-03T18:27:30.704Z,101665.59
2022-10-03T18:30:14.547Z,101660.44
2022-10-03T18:32:49.249Z,101656.41
2022-10-03T18:35:30.054Z,101665.84
2022-10-03T18:38:18.834Z,101667.75
2022-10-03T18:40:50.980Z,101677.97
2022-10-03T18:43:47.192Z,101665.94
2022-10-03T18:46:15.976Z,101661.47
2022-10-03T18:49:28.157Z,101665.84
2022-10-03T18:51:55.248Z,101657.34
2022-10-03T18:54:49.932Z,101658.38
2022-10-03T18:57:32.163Z,101650.50
2022-10-03T19:00:19.046Z,101660.53
2022-10-03T19:02:55.547Z,101647.66
2022-10-03T19:05:54.851Z,101650.25
2022-10-03T19:08:41.270Z,101647.56
2022-10-03T19:11:24.631Z,101652.50
2022-10-03T19:14:16.873Z,101651.31
2022-10-03T19:16:59.810Z,101654.84
2022-10-03T19:19:59.532Z,101655.41
2022-10-03T19:22:44.406Z,101656.94
2022-10-03T19:25:41.547Z,101649.91
2022-10-03T19:28:44.593Z,101649.41
2022-10-03T19:31:29.185Z,101654.00
2022-10-03T19:34:31.796Z,101660.22
2022-10-03T19:37:01.937Z,101660.94
2022-10-03T19:39:50.476Z,101665.75
2022-10-03T19:42:33.547Z,101657.50
2022-10-03T19:45:01.930Z,101657.13
2022-10-03T19:47:33.875Z,101664.06
2022-10-03T19:50:19.069Z,101668.06
2022-10-03T19:52:48.461Z,101665.72
2022-10-03T19:55:25.774Z,101664.44
2022-10-03T19:58:05.135Z,101660.66
2022-10-03T20:00:41.695Z,101662.66
2022-10-03T20:03:31.450Z,101666.78
2022-10-03T20:06:03.165Z,101670.28
2022-10-03T20:08:42.558Z,101669.25
2022-10-03T20:11:14.900Z,101667.25
2022-10-03T20:13:52.675Z,101671.81
2022-10-03T20:16:25.433Z,101671.00
2022-10-03T20:18:57.330Z,101671.25
2022-10-03T20:21:29.099Z,101669.41
2022-10-03T20:24:00.056Z,101669.88
2022-10-03T20:26:43.554Z,101674.47
2022-10-03T20:29:31.934Z,101678.91
2022-10-03T20:32:01.934Z,101674.56
2022-10-03T20:34:31.986Z,101674.56
2022-10-03T20:37:27.890Z,101678.91
2022-10-03T20:40:04.317Z,101678.91
2022-10-03T20:42:32.617Z,101681.00
2022-10-03T20:45:15.332Z,101676.69
2022-10-03T20:48:01.731Z,101675.03
2022-10-03T20:50:35.993Z,101682.28
2022-10-03T20:53:19.553Z,101682.53
2022-10-03T20:56:17.979Z,101684.66
2022-10-03T20:58:54.318Z,101681.56
2022-10-03T21:01:24.945Z,101682.84
2022-10-03T21:04:15.538Z,101677.06
2022-10-03T21:07:21.240Z,101677.06
2022-10-03T21:09:58.885Z,101675.28
2022-10-03T21:12:35.918Z,101680.69
2022-10-03T21:15:15.928Z,101685.50
2022-10-03T21:17:46.266Z,101684.47
2022-10-03T21:20:29.683Z,101681.97
2022-10-03T21:23:03.299Z,101683.84
2022-10-03T21:25:38.649Z,101684.88
2022-10-03T21:28:30.988Z,101671.38
2022-10-03T21:31:17.736Z,101677.47
2022-10-03T21:34:21.718Z,101680.63
2022-10-03T21:37:18.084Z,101676.72
2022-10-03T21:39:55.747Z,101674.69
2022-10-03T21:42:33.331Z,101670.66
2022-10-03T21:45:47.983Z,101665.00
2022-10-03T21:48:35.998Z,101667.09
2022-10-03T21:51:32.840Z,101671.31
2022-10-03T21:54:33.906Z,101674.00
2022-10-03T21:57:01.826Z,101674.47
2022-10-03T21:59:32.065Z,101664.69
2022-10-03T22:02:54.441Z,101670.34
2022-10-03T22:05:28.094Z,101675.19
2022-10-03T22:07:56.898Z,101664.38
2022-10-03T22:10:31.244Z,101665.88
2022-10-03T22:13:08.612Z,101668.81
2022-10-03T22:15:37.011Z,101671.34
2022-10-03T22:18:12.149Z,101675.09
2022-10-03T22:21:05.507Z,101686.75
2022-10-03T22:23:42.097Z,101684.88
2022-10-03T22:26:32.410Z,101686.75
2022-10-03T22:29:00.282Z,101686.13
2022-10-03T22:31:38.431Z,101696.81
2022-10-03T22:34:21.728Z,101698.31
2022-10-03T22:36:52.919Z,101702.03
2022-10-03T22:39:24.626Z,101691.47
2022-10-03T22:41:57.535Z,101690.84
2022-10-03T22:44:29.917Z,101693.53
2022-10-03T22:47:06.797Z,101686.69
2022-10-03T22:49:48.194Z,101685.06
2022-10-03T22:52:29.101Z,101696.69
2022-10-03T22:54:59.238Z,101696.31
2022-10-03T22:57:31.751Z,101696.38
2022-10-03T23:00:16.598Z,101697.78
2022-10-03T23:02:59.474Z,101694.50
2022-10-03T23:05:43.269Z,101691.16
2022-10-03T23:08:29.057Z,101685.63
2022-10-03T23:11:04.713Z,101699.13
2022-10-03T23:13:44.343Z,101699.56
2022-10-03T23:16:31.077Z,101710.34
2022-10-03T23:19:13.666Z,101712.69
2022-10-03T23:21:47.373Z,101712.16
2022-10-03T23:24:28.737Z,101707.16
2022-10-03T23:27:30.130Z,101704.69
2022-10-03T23:30:18.588Z,101709.63
2022-10-03T23:32:49.297Z,101711.75
2022-10-03T23:35:32.433Z,101703.28
2022-10-03T23:38:02.319Z,101705.56
2022-10-03T23:40:41.262Z,101715.94
2022-10-03T23:43:40.823Z,101715.75
2022-10-03T23:46:16.290Z,101715.38
2022-10-03T23:49:06.261Z,101714.34
2022-10-03T23:51:36.865Z,101714.19
2022-10-03T23:54:08.742Z,101719.56
2022-10-03T23:56:36.275Z,101713.94
2022-10-03T23:59:04.209Z,101715.66
